Sibley, North Dakota
Current Conditions -  °F | °C
As of 8:55 PM on Tuesday 25 Nov 2014 (Local Time) from KBAC Reporting Station
Light Snow Light Snow  
Wind Chill:   Ceiling: 800
Heat Index: 19°   Visibility: 2.5mi
Dew Point: 19°   Wind: 14mph
Humidity: 100%   Direction: 50°NE
Pressure: 29.94"   Gusts: 22mph
Location:  47.1985°N, 98.1586°W
Report Text: KBAC 260255Z AUTO 05012G19KT 2 1/2SM -SN BKN008 M07/M07 A2994 RMK AO2 P0014
Loading
Personal Weather Stations






























Interactive Weather Map New forecast layout! Learn more

10-Day Weather Forecast

Advertisements
Track Severe Weather on mobile